createdAt,value
2018-01-11T00:00:51.339Z,98973.25
2018-01-11T00:03:19.243Z,98977.53
2018-01-11T00:05:46.797Z,98981.58
2018-01-11T00:08:14.410Z,98980.88
2018-01-11T00:10:42.199Z,98980.52
2018-01-11T00:13:09.897Z,98986.11
2018-01-11T00:15:37.473Z,98989.31
2018-01-11T00:18:05.252Z,98992.86
2018-01-11T00:20:32.917Z,98987.28
2018-01-11T00:23:00.478Z,98987.19
2018-01-11T00:25:28.096Z,98986.20
2018-01-11T00:27:55.823Z,98986.11
2018-01-11T00:30:23.390Z,98985.56
2018-01-11T00:32:51.001Z,98977.16
2018-01-11T00:35:18.685Z,98981.84
2018-01-11T00:37:46.499Z,98972.00
2018-01-11T00:40:14.080Z,98973.80
2018-01-11T00:42:41.724Z,98970.38
2018-01-11T00:45:09.331Z,98966.78
2018-01-11T00:47:37.068Z,98965.35
2018-01-11T00:50:04.634Z,98963.98
2018-01-11T00:52:32.273Z,98960.66
2018-01-11T00:54:59.813Z,98962.20
2018-01-11T00:57:27.427Z,98956.84
2018-01-11T00:59:54.981Z,98957.26
2018-01-11T01:02:22.775Z,98954.73
2018-01-11T01:04:50.384Z,98952.53
2018-01-11T01:07:17.960Z,98949.73
2018-01-11T01:09:45.569Z,98942.49
2018-01-11T01:12:13.348Z,98935.77
2018-01-11T01:14:40.910Z,98929.62
2018-01-11T01:17:08.644Z,98935.50
2018-01-11T01:19:36.361Z,98941.85
2018-01-11T01:22:04.220Z,98931.72
2018-01-11T01:24:31.783Z,98937.00
2018-01-11T01:26:59.448Z,98923.41
2018-01-11T01:29:27.195Z,98923.50
2018-01-11T01:31:54.768Z,98924.05
2018-01-11T01:34:22.610Z,98912.86
2018-01-11T01:36:50.174Z,98915.95
2018-01-11T01:39:17.736Z,98918.87
2018-01-11T01:41:45.320Z,98915.98
2018-01-11T01:44:12.972Z,98912.59
2018-01-11T01:46:40.763Z,98909.81
2018-01-11T01:49:08.322Z,98903.18
2018-01-11T01:51:35.892Z,98897.36
2018-01-11T01:54:03.470Z,98898.80
2018-01-11T01:56:31.166Z,98896.13
2018-01-11T01:58:58.992Z,98901.22
2018-01-11T02:01:26.708Z,98899.32
2018-01-11T02:03:54.429Z,98899.97
2018-01-11T02:06:22.035Z,98894.56
2018-01-11T02:08:49.634Z,98895.71
2018-01-11T02:11:17.479Z,98896.78
2018-01-11T02:13:45.042Z,98890.25
2018-01-11T02:16:12.609Z,98892.20
2018-01-11T02:18:40.205Z,98886.64
2018-01-11T02:21:07.956Z,98886.16
2018-01-11T02:23:35.734Z,98890.15
2018-01-11T02:26:03.450Z,98886.73
2018-01-11T02:28:30.992Z,98894.84
2018-01-11T02:30:58.600Z,98891.41
2018-01-11T02:33:26.157Z,98886.62
2018-01-11T02:35:53.801Z,98887.56
2018-01-11T02:38:21.363Z,98881.12
2018-01-11T02:40:48.964Z,98867.28
2018-01-11T02:43:16.613Z,98870.70
2018-01-11T02:45:44.331Z,98866.20
2018-01-11T02:48:12.041Z,98861.56
2018-01-11T02:50:39.606Z,98857.48
2018-01-11T02:53:07.386Z,98856.35
2018-01-11T02:55:34.984Z,98855.27
2018-01-11T02:58:02.626Z,98843.94
2018-01-11T03:00:30.251Z,98840.18
2018-01-11T03:02:57.809Z,98827.24
2018-01-11T03:05:25.366Z,98830.42
2018-01-11T03:07:53.078Z,98829.47
2018-01-11T03:10:20.682Z,98824.94
2018-01-11T03:12:48.529Z,98825.14
2018-01-11T03:15:16.148Z,98821.22
2018-01-11T03:17:43.718Z,98825.17
2018-01-11T03:20:11.374Z,98823.12
2018-01-11T03:22:38.995Z,98827.71
2018-01-11T03:25:06.618Z,98829.22
2018-01-11T03:27:34.229Z,98833.75
2018-01-11T03:30:01.960Z,98837.64
2018-01-11T03:32:29.535Z,98831.60
2018-01-11T03:34:57.101Z,98839.22
2018-01-11T03:37:24.909Z,98840.80
2018-01-11T03:39:52.470Z,98843.09
2018-01-11T03:42:20.011Z,98844.56
2018-01-11T03:44:47.586Z,98852.81
2018-01-11T03:47:15.382Z,98856.14
2018-01-11T03:49:43.098Z,98856.33
2018-01-11T03:52:10.650Z,98859.78
2018-01-11T03:54:38.225Z,98859.26
2018-01-11T03:57:05.828Z,98850.22
2018-01-11T03:59:33.393Z,98858.89
2018-01-11T04:02:01.009Z,98856.08
2018-01-11T04:04:28.810Z,98847.39
2018-01-11T04:06:56.369Z,98857.44
2018-01-11T04:09:23.934Z,98847.63
2018-01-11T04:11:51.498Z,98849.52
2018-01-11T04:14:19.277Z,98851.76
2018-01-11T04:16:46.850Z,98858.98
2018-01-11T04:19:14.414Z,98856.09
2018-01-11T04:21:42.006Z,98855.22
2018-01-11T04:24:09.596Z,98859.57
2018-01-11T04:26:37.197Z,98856.73
2018-01-11T04:29:04.770Z,98861.53
2018-01-11T04:31:32.478Z,98868.22
2018-01-11T04:34:00.056Z,98863.30
2018-01-11T04:36:27.839Z,98867.95
2018-01-11T04:38:55.455Z,98864.58
2018-01-11T04:41:23.275Z,98856.73
2018-01-11T04:43:50.838Z,98865.48
2018-01-11T04:46:18.771Z,98860.69
2018-01-11T04:48:46.328Z,98856.25
2018-01-11T04:51:14.148Z,98855.45
2018-01-11T04:53:41.746Z,98846.57
2018-01-11T04:56:09.307Z,98844.50
2018-01-11T04:58:37.102Z,98851.28
2018-01-11T05:01:04.797Z,98846.71
2018-01-11T05:03:32.639Z,98846.59
2018-01-11T05:06:00.206Z,98854.53
2018-01-11T05:08:27.766Z,98853.84
2018-01-11T05:10:55.464Z,98849.41
2018-01-11T05:13:23.110Z,98858.84
2018-01-11T05:15:50.932Z,98859.17
2018-01-11T05:18:18.747Z,98852.18
2018-01-11T05:20:46.307Z,98857.65
2018-01-11T05:23:14.086Z,98855.47
2018-01-11T05:25:41.693Z,98854.85
2018-01-11T05:28:09.328Z,98850.92
2018-01-11T05:30:37.040Z,98855.48
2018-01-11T05:33:04.834Z,98857.37
2018-01-11T05:35:32.550Z,98855.09
2018-01-11T05:38:00.267Z,98851.89
2018-01-11T05:40:27.886Z,98852.95
2018-01-11T05:42:55.462Z,98844.28
2018-01-11T05:45:23.038Z,98846.91
2018-01-11T05:47:50.618Z,98845.62
2018-01-11T05:50:18.160Z,98843.77
2018-01-11T05:52:46.000Z,98846.30
2018-01-11T05:55:13.718Z,98847.81
2018-01-11T05:57:41.396Z,98841.61
2018-01-11T06:00:09.113Z,98847.80
2018-01-11T06:02:36.677Z,98845.24
2018-01-11T06:05:04.383Z,98841.19
2018-01-11T06:07:32.209Z,98842.35
2018-01-11T06:09:59.762Z,98850.52
2018-01-11T06:12:27.334Z,98851.86
2018-01-11T06:14:54.889Z,98842.41
2018-01-11T06:17:22.511Z,98845.53
2018-01-11T06:19:50.067Z,98844.48
2018-01-11T06:22:17.822Z,98851.63
2018-01-11T06:24:46.104Z,98855.39
2018-01-11T06:27:13.817Z,98856.32
2018-01-11T06:29:41.677Z,98853.88
2018-01-11T06:32:09.492Z,98857.92
2018-01-11T06:34:37.102Z,98862.81
2018-01-11T06:37:04.923Z,98858.50
2018-01-11T06:39:32.747Z,98867.11
2018-01-11T06:42:00.554Z,98872.30
2018-01-11T06:44:28.111Z,98872.94
2018-01-11T06:46:55.903Z,98872.42
2018-01-11T06:49:23.720Z,98879.87
2018-01-11T06:51:51.286Z,98879.71
2018-01-11T06:54:18.929Z,98884.14
2018-01-11T06:56:46.494Z,98884.84
2018-01-11T06:59:14.292Z,98890.09
2018-01-11T07:01:42.112Z,98885.63
2018-01-11T07:04:09.721Z,98890.80
2018-01-11T07:06:37.398Z,98885.83
2018-01-11T07:09:05.266Z,98881.31
2018-01-11T07:11:33.084Z,98887.03
2018-01-11T07:14:00.903Z,98882.65
2018-01-11T07:16:28.718Z,98879.17
2018-01-11T07:18:56.541Z,98887.14
2018-01-11T07:21:24.150Z,98885.83
2018-01-11T07:23:52.080Z,98881.45
2018-01-11T07:26:19.657Z,98884.78
2018-01-11T07:28:47.230Z,98890.89
2018-01-11T07:31:15.031Z,98893.46
2018-01-11T07:33:42.640Z,98890.37
2018-01-11T07:36:10.347Z,98893.36
2018-01-11T07:38:37.928Z,98891.61
2018-01-11T07:41:05.680Z,98888.30
2018-01-11T07:43:33.522Z,98886.82
2018-01-11T07:46:01.102Z,98885.98
2018-01-11T07:48:28.666Z,98880.91
2018-01-11T07:50:56.242Z,98883.42
2018-01-11T07:53:23.993Z,98880.95
2018-01-11T07:55:51.606Z,98878.47
2018-01-11T07:58:19.258Z,98878.27
2018-01-11T08:00:46.825Z,98885.30
2018-01-11T08:03:14.645Z,98889.44
2018-01-11T08:05:42.205Z,98892.23
2018-01-11T08:08:09.804Z,98886.02
2018-01-11T08:10:37.374Z,98888.17
2018-01-11T08:13:04.948Z,98886.75
2018-01-11T08:15:32.522Z,98888.11
2018-01-11T08:18:01.171Z,98878.45
2018-01-11T08:20:28.790Z,98880.34
2018-01-11T08:22:56.369Z,98881.17
2018-01-11T08:25:23.930Z,98871.95
2018-01-11T08:27:51.501Z,98861.33
2018-01-11T08:30:19.071Z,98867.20
2018-01-11T08:32:46.679Z,98859.19
2018-01-11T08:35:14.231Z,98861.56
2018-01-11T08:37:41.786Z,98859.36
2018-01-11T08:40:09.357Z,98861.34
2018-01-11T08:42:36.910Z,98852.78
2018-01-11T08:45:04.561Z,98859.05
2018-01-11T08:47:32.136Z,98857.72
2018-01-11T08:49:59.707Z,98862.19
2018-01-11T08:52:27.315Z,98859.75
2018-01-11T08:54:54.928Z,98859.65
2018-01-11T08:57:22.624Z,98853.09
2018-01-11T08:59:50.190Z,98855.23
2018-01-11T09:02:17.787Z,98853.96
2018-01-11T09:04:45.353Z,98840.98
2018-01-11T09:07:12.962Z,98836.38
2018-01-11T09:09:40.643Z,98834.42
2018-01-11T09:12:08.251Z,98833.74
2018-01-11T09:14:35.837Z,98837.95
2018-01-11T09:17:03.430Z,98838.30
2018-01-11T09:19:30.990Z,98838.52
2018-01-11T09:21:58.619Z,98840.33
2018-01-11T09:24:26.181Z,98839.12
2018-01-11T09:26:53.735Z,98831.38
2018-01-11T09:29:21.310Z,98832.84
2018-01-11T09:31:48.900Z,98832.80
2018-01-11T09:34:16.921Z,98835.98
2018-01-11T09:36:45.339Z,98834.16
2018-01-11T09:39:12.939Z,98833.36
2018-01-11T09:41:40.545Z,98823.66
2018-01-11T09:44:08.122Z,98823.12
2018-01-11T09:46:35.738Z,98815.39
2018-01-11T09:49:03.529Z,98808.45
2018-01-11T09:51:31.104Z,98802.27
2018-01-11T09:53:58.736Z,98788.64
2018-01-11T09:56:26.366Z,98791.19
2018-01-11T09:58:54.130Z,98786.83
2018-01-11T10:01:21.709Z,98777.12
2018-01-11T10:03:49.548Z,98781.98
2018-01-11T10:06:17.129Z,98780.70
2018-01-11T10:08:44.760Z,98778.38
2018-01-11T10:11:12.387Z,98770.29
2018-01-11T10:13:39.923Z,98769.14
2018-01-11T10:16:07.568Z,98764.99
2018-01-11T10:18:35.123Z,98763.95
2018-01-11T10:21:02.799Z,98750.45
2018-01-11T10:23:30.523Z,98748.29
2018-01-11T10:25:58.095Z,98751.41
2018-01-11T10:28:25.656Z,98738.28
2018-01-11T10:30:53.250Z,98747.04
2018-01-11T10:33:20.809Z,98736.73
2018-01-11T10:35:48.507Z,98733.60
2018-01-11T10:38:16.063Z,98731.27
2018-01-11T10:40:43.654Z,98728.89
2018-01-11T10:43:11.260Z,98716.84
2018-01-11T10:45:38.849Z,98715.61
2018-01-11T10:48:06.481Z,98709.49
2018-01-11T10:50:34.050Z,98711.72
2018-01-11T10:53:01.639Z,98714.66
2018-01-11T10:55:29.195Z,98715.84
2018-01-11T10:57:56.950Z,98717.34
2018-01-11T11:00:25.492Z,98718.30
2018-01-11T11:02:53.081Z,98717.97
2018-01-11T11:05:20.642Z,98716.98
2018-01-11T11:07:48.465Z,98721.56
2018-01-11T11:10:16.065Z,98719.98
2018-01-11T11:12:43.672Z,98723.64
2018-01-11T11:15:11.240Z,98720.56
2018-01-11T11:17:38.812Z,98721.75
2018-01-11T11:20:06.432Z,98728.00
2018-01-11T11:22:33.986Z,98731.87
2018-01-11T11:25:01.602Z,98734.78
2018-01-11T11:27:29.196Z,98732.61
2018-01-11T11:29:56.803Z,98730.95
2018-01-11T11:32:24.404Z,98731.23
2018-01-11T11:34:51.965Z,98724.20
2018-01-11T11:37:19.664Z,98710.44
2018-01-11T11:39:47.228Z,98727.56
2018-01-11T11:42:14.846Z,98728.57
2018-01-11T11:44:42.424Z,98734.88
2018-01-11T11:47:09.996Z,98732.09
2018-01-11T11:49:37.561Z,98734.88
2018-01-11T11:52:05.139Z,98731.00
2018-01-11T11:54:32.785Z,98728.72
2018-01-11T11:57:00.336Z,98735.44
2018-01-11T11:59:27.898Z,98741.02
2018-01-11T12:01:55.470Z,98742.64
2018-01-11T12:04:23.035Z,98744.37
2018-01-11T12:06:50.606Z,98746.02
2018-01-11T12:09:18.170Z,98739.67
2018-01-11T12:11:45.736Z,98739.80
2018-01-11T12:14:13.293Z,98748.26
2018-01-11T12:16:40.914Z,98747.04
2018-01-11T12:19:08.465Z,98748.26
2018-01-11T12:21:36.061Z,98749.88
2018-01-11T12:26:36.932Z,98756.61
2018-01-11T12:31:37.458Z,98753.22
2018-01-11T12:34:04.999Z,98750.20
2018-01-11T12:36:32.530Z,98750.40
2018-01-11T12:39:00.946Z,98742.96
2018-01-11T12:41:28.560Z,98747.16
2018-01-11T12:43:56.134Z,98745.63
2018-01-11T12:46:23.711Z,98747.52
2018-01-11T12:48:51.258Z,98752.39
2018-01-11T12:51:18.845Z,98755.88
2018-01-11T12:53:46.375Z,98753.52
2018-01-11T12:56:14.058Z,98757.81
2018-01-11T12:58:41.618Z,98759.05
2018-01-11T13:01:09.361Z,98758.91
2018-01-11T13:03:36.956Z,98760.27
2018-01-11T13:06:04.536Z,98765.11
2018-01-11T13:11:04.762Z,98775.13
2018-01-11T13:13:32.331Z,98769.06
2018-01-11T13:15:59.905Z,98777.20
2018-01-11T13:18:27.550Z,98777.35
2018-01-11T13:20:55.376Z,98774.31
2018-01-11T13:23:22.949Z,98775.91
2018-01-11T13:25:50.519Z,98775.67
2018-01-11T13:28:18.383Z,98768.00
2018-01-11T13:30:46.148Z,98784.88
2018-01-11T13:33:13.755Z,98798.05
2018-01-11T13:35:41.377Z,98789.16
2018-01-11T13:38:08.988Z,98791.11
2018-01-11T13:40:36.826Z,98789.25
2018-01-11T13:43:04.430Z,98791.41
2018-01-11T13:45:32.031Z,98794.58
2018-01-11T13:47:59.571Z,98793.44
2018-01-11T13:50:27.139Z,98798.92
2018-01-11T13:52:54.742Z,98805.91
2018-01-11T13:55:22.319Z,98799.03
2018-01-11T13:57:50.046Z,98800.28
2018-01-11T14:00:17.764Z,98798.38
2018-01-11T14:02:45.339Z,98800.36
2018-01-11T14:05:12.895Z,98802.41
2018-01-11T14:07:40.467Z,98807.00
2018-01-11T14:10:08.118Z,98804.81
2018-01-11T14:12:35.686Z,98815.28
2018-01-11T14:15:04.076Z,98805.95
2018-01-11T14:17:31.683Z,98814.28
2018-01-11T14:19:59.302Z,98815.88
2018-01-11T14:22:27.135Z,98820.23
2018-01-11T14:24:55.047Z,98817.36
2018-01-11T14:27:22.633Z,98821.19
2018-01-11T14:29:50.384Z,98825.75
2018-01-11T14:32:18.126Z,98824.95
2018-01-11T14:34:46.212Z,98833.19
2018-01-11T14:37:13.778Z,98829.92
2018-01-11T14:39:41.450Z,98831.34
2018-01-11T14:42:09.276Z,98840.13
2018-01-11T14:44:36.885Z,98831.49
2018-01-11T14:47:04.499Z,98833.83
2018-01-11T14:49:32.332Z,98829.75
2018-01-11T14:52:00.160Z,98837.13
2018-01-11T14:54:27.945Z,98841.03
2018-01-11T14:56:55.528Z,98834.59
2018-01-11T14:59:23.162Z,98838.87
2018-01-11T15:01:50.741Z,98836.78
2018-01-11T15:04:18.308Z,98837.69
2018-01-11T15:06:45.876Z,98843.85
2018-01-11T15:09:14.900Z,98841.45
2018-01-11T15:11:42.583Z,98853.25
2018-01-11T15:14:10.416Z,98850.25
2018-01-11T15:16:38.016Z,98850.47
2018-01-11T15:19:05.570Z,98847.36
2018-01-11T15:21:33.151Z,98853.32
2018-01-11T15:24:01.003Z,98844.78
2018-01-11T15:26:28.565Z,98856.42
2018-01-11T15:28:56.186Z,98854.27
2018-01-11T15:31:23.913Z,98853.84
2018-01-11T15:33:51.482Z,98857.39
2018-01-11T15:36:19.167Z,98857.67
2018-01-11T15:38:46.894Z,98865.72
2018-01-11T15:41:14.716Z,98861.26
2018-01-11T15:43:42.533Z,98857.81
2018-01-11T15:46:10.142Z,98860.59
2018-01-11T15:48:37.969Z,98861.95
2018-01-11T15:51:05.590Z,98858.20
2018-01-11T15:53:33.171Z,98852.77
2018-01-11T15:56:00.748Z,98851.82
2018-01-11T15:58:28.314Z,98849.52
2018-01-11T16:00:55.906Z,98856.80
2018-01-11T16:03:23.482Z,98860.15
2018-01-11T16:05:51.086Z,98858.72
2018-01-11T16:08:18.658Z,98861.63
2018-01-11T16:10:46.210Z,98867.09
2018-01-11T16:13:13.817Z,98873.09
2018-01-11T16:15:41.565Z,98869.02
2018-01-11T16:18:09.131Z,98872.04
2018-01-11T16:20:36.723Z,98877.75
2018-01-11T16:23:04.285Z,98874.89
2018-01-11T16:25:31.971Z,98861.42
2018-01-11T16:27:59.714Z,98875.66
2018-01-11T16:30:27.473Z,98876.64
2018-01-11T16:32:55.054Z,98879.56
2018-01-11T16:35:22.809Z,98884.25
2018-01-11T16:37:50.618Z,98886.30
2018-01-11T16:40:18.448Z,98885.53
2018-01-11T16:42:46.058Z,98886.70
2018-01-11T16:45:13.633Z,98892.39
2018-01-11T16:47:41.309Z,98893.58
2018-01-11T16:50:08.934Z,98892.95
2018-01-11T16:52:36.526Z,98896.93
2018-01-11T16:55:04.115Z,98898.19
2018-01-11T16:57:31.701Z,98895.30
2018-01-11T16:59:59.449Z,98904.88
2018-01-11T17:02:27.224Z,98910.58
2018-01-11T17:04:55.027Z,98911.86
2018-01-11T17:07:22.627Z,98911.55
2018-01-11T17:09:50.198Z,98920.11
2018-01-11T17:12:17.762Z,98924.75
2018-01-11T17:14:45.502Z,98918.10
2018-01-11T17:17:13.218Z,98922.59
2018-01-11T17:19:40.758Z,98918.59
2018-01-11T17:22:08.520Z,98920.20
2018-01-11T17:24:36.055Z,98930.47
2018-01-11T17:27:03.654Z,98927.95
2018-01-11T17:29:31.246Z,98927.72
2018-01-11T17:31:58.786Z,98929.00
2018-01-11T17:34:26.330Z,98930.78
2018-01-11T17:36:53.870Z,98929.70
2018-01-11T17:39:21.466Z,98928.06
2018-01-11T17:41:49.006Z,98929.15
2018-01-11T17:44:16.615Z,98932.09
2018-01-11T17:46:44.166Z,98930.91
2018-01-11T17:49:11.767Z,98934.49
2018-01-11T17:51:39.393Z,98933.63
2018-01-11T17:54:06.934Z,98931.12
2018-01-11T17:56:34.474Z,98930.03
2018-01-11T17:59:02.034Z,98935.13
2018-01-11T18:01:29.642Z,98935.19
2018-01-11T18:03:57.362Z,98936.52
2018-01-11T18:06:25.099Z,98931.85
2018-01-11T18:08:52.643Z,98934.42
2018-01-11T18:11:20.195Z,98935.95
2018-01-11T18:13:47.732Z,98940.07
2018-01-11T18:16:15.318Z,98938.67
2018-01-11T18:18:42.852Z,98942.54
2018-01-11T18:21:10.478Z,98938.28
2018-01-11T18:23:38.026Z,98937.49
2018-01-11T18:26:05.715Z,98939.63
2018-01-11T18:28:33.298Z,98945.23
2018-01-11T18:31:00.874Z,98944.88
2018-01-11T18:33:28.416Z,98943.63
2018-01-11T18:35:56.090Z,98946.20
2018-01-11T18:38:23.804Z,98948.33
2018-01-11T18:40:51.386Z,98943.17
2018-01-11T18:43:19.041Z,98948.21
2018-01-11T18:45:46.727Z,98948.98
2018-01-11T18:48:14.266Z,98945.17
2018-01-11T18:50:41.806Z,98950.22
2018-01-11T18:53:09.515Z,98953.05
2018-01-11T18:55:37.061Z,98956.05
2018-01-11T18:58:04.606Z,98951.42
2018-01-11T19:00:32.404Z,98953.37
2018-01-11T19:02:59.938Z,98958.28
2018-01-11T19:05:27.546Z,98962.25
2018-01-11T19:07:55.090Z,98963.44
2018-01-11T19:10:22.779Z,98961.93
2018-01-11T19:12:50.496Z,98962.77
2018-01-11T19:15:19.119Z,98970.39
2018-01-11T19:17:46.932Z,98965.84
2018-01-11T19:20:14.470Z,98971.58
2018-01-11T19:22:42.178Z,98971.05
2018-01-11T19:25:09.728Z,98969.86
2018-01-11T19:27:37.258Z,98968.92
2018-01-11T19:30:04.858Z,98974.35
2018-01-11T19:32:32.538Z,98980.84
2018-01-11T19:35:00.075Z,98986.24
2018-01-11T19:37:27.775Z,98991.20
2018-01-11T19:39:55.318Z,98989.31
2018-01-11T19:42:22.926Z,98992.22
2018-01-11T19:44:50.729Z,98993.67
2018-01-11T19:47:18.346Z,98992.23
2018-01-11T19:49:45.902Z,98997.33
2018-01-11T19:52:13.583Z,98994.40
2018-01-11T19:54:41.195Z,98994.23
2018-01-11T19:57:08.827Z,98994.65
2018-01-11T19:59:36.378Z,98993.75
2018-01-11T20:02:04.130Z,99000.02
2018-01-11T20:04:31.727Z,98991.61
2018-01-11T20:06:59.314Z,99000.52
2018-01-11T20:09:27.016Z,98999.48
2018-01-11T20:11:54.554Z,98997.54
2018-01-11T20:14:22.344Z,99004.13
2018-01-11T20:16:49.934Z,99002.17
2018-01-11T20:19:17.514Z,99003.81
2018-01-11T20:21:45.050Z,99003.20
2018-01-11T20:24:12.718Z,99016.13
2018-01-11T20:26:40.261Z,99018.81
2018-01-11T20:29:07.806Z,99017.81
2018-01-11T20:31:35.459Z,99020.16
2018-01-11T20:34:03.009Z,99022.51
2018-01-11T20:36:30.582Z,99022.49
2018-01-11T20:38:58.326Z,99027.80
2018-01-11T20:41:25.866Z,99022.72
2018-01-11T20:43:53.463Z,99026.76
2018-01-11T20:46:21.002Z,99034.22
2018-01-11T20:48:48.699Z,99033.55
2018-01-11T20:51:16.274Z,99031.13
2018-01-11T20:53:44.030Z,99034.30
2018-01-11T20:56:11.847Z,99037.13
2018-01-11T20:58:39.386Z,99034.41
2018-01-11T21:01:06.962Z,99041.72
2018-01-11T21:03:34.663Z,99042.92
2018-01-11T21:06:02.333Z,99046.11
2018-01-11T21:08:29.928Z,99045.06
2018-01-11T21:10:57.555Z,99053.77
2018-01-11T21:13:25.173Z,99052.36
2018-01-11T21:15:52.795Z,99058.47
2018-01-11T21:18:20.460Z,99064.17
2018-01-11T21:20:48.119Z,99063.66
2018-01-11T21:23:15.659Z,99070.09
2018-01-11T21:25:43.278Z,99066.66
2018-01-11T21:28:10.818Z,99070.20
2018-01-11T21:30:38.392Z,99069.59
2018-01-11T21:33:05.978Z,99067.77
2018-01-11T21:35:33.640Z,99069.12
2018-01-11T21:38:01.182Z,99068.47
2018-01-11T21:40:28.878Z,99069.98
2018-01-11T21:42:56.430Z,99069.20
2018-01-11T21:45:24.022Z,99071.43
2018-01-11T21:47:51.582Z,99070.44
2018-01-11T21:50:19.242Z,99080.47
2018-01-11T21:52:46.786Z,99087.20
2018-01-11T21:55:14.323Z,99086.42
2018-01-11T21:57:41.915Z,99091.52
2018-01-11T22:00:09.508Z,99094.54
2018-01-11T22:02:37.051Z,99092.34
2018-01-11T22:05:04.755Z,99086.39
2018-01-11T22:07:32.466Z,99092.28
2018-01-11T22:10:00.044Z,99096.05
2018-01-11T22:12:27.761Z,99093.37
2018-01-11T22:14:55.286Z,99095.05
2018-01-11T22:17:23.000Z,99095.18
2018-01-11T22:19:50.610Z,99092.50
2018-01-11T22:22:18.361Z,99091.86
2018-01-11T22:24:45.890Z,99090.80
2018-01-11T22:27:13.434Z,99094.95
2018-01-11T22:29:40.980Z,99095.34
2018-01-11T22:32:08.563Z,99091.06
2018-01-11T22:34:36.269Z,99090.87
2018-01-11T22:37:03.814Z,99095.34
2018-01-11T22:39:31.454Z,99092.47
2018-01-11T22:41:59.000Z,99088.20
2018-01-11T22:44:26.539Z,99099.33
2018-01-11T22:46:54.126Z,99098.17
2018-01-11T22:49:21.666Z,99089.73
2018-01-11T22:51:49.287Z,99095.77
2018-01-11T22:54:16.909Z,99101.08
2018-01-11T22:56:44.590Z,99103.23
2018-01-11T22:59:12.441Z,99106.06
2018-01-11T23:01:39.974Z,99105.06
2018-01-11T23:04:07.511Z,99103.03
2018-01-11T23:06:35.053Z,99113.44
2018-01-11T23:09:02.711Z,99115.40
2018-01-11T23:11:35.741Z,99106.16
2018-01-11T23:14:03.469Z,99114.95
2018-01-11T23:16:31.074Z,99116.98
2018-01-11T23:18:58.618Z,99124.25
2018-01-11T23:21:26.178Z,99126.73
2018-01-11T23:23:53.786Z,99118.48
2018-01-11T23:26:21.321Z,99122.51
2018-01-11T23:28:48.866Z,99119.09
2018-01-11T23:31:16.438Z,99119.55
2018-01-11T23:33:43.974Z,99122.77
2018-01-11T23:36:11.635Z,99123.03
2018-01-11T23:38:39.313Z,99124.80
2018-01-11T23:41:06.837Z,99125.38
2018-01-11T23:43:34.374Z,99123.80
2018-01-11T23:46:01.910Z,99128.41
2018-01-11T23:48:29.560Z,99127.70
2018-01-11T23:50:57.098Z,99117.95
2018-01-11T23:53:24.637Z,99134.33
2018-01-11T23:55:52.222Z,99128.66
2018-01-11T23:58:19.988Z,99130.82
